sensor_id;sensor_type;location;lat;lon;timestamp;pressure;altitude;pressure_sealevel;temperature;humidity
62789;BME280;66401;42.016;21.454;2023-08-12T00:00:16;98757.97;;;20.18;53.80
62789;BME280;66401;42.016;21.454;2023-08-12T00:02:42;98746.75;;;20.11;53.89
62789;BME280;66401;42.016;21.454;2023-08-12T00:05:08;98759.72;;;20.13;54.11
62789;BME280;66401;42.016;21.454;2023-08-12T00:07:38;98756.03;;;20.14;53.78
62789;BME280;66401;42.016;21.454;2023-08-12T00:10:05;98754.69;;;20.11;53.88
62789;BME280;66401;42.016;21.454;2023-08-12T00:12:34;98766.31;;;20.10;54.21
62789;BME280;66401;42.016;21.454;2023-08-12T00:15:00;98757.81;;;20.08;53.84
62789;BME280;66401;42.016;21.454;2023-08-12T00:17:26;98762.78;;;20.05;54.16
62789;BME280;66401;42.016;21.454;2023-08-12T00:19:52;98755.88;;;20.04;54.12
62789;BME280;66401;42.016;21.454;2023-08-12T00:22:18;98757.97;;;20.01;54.46
62789;BME280;66401;42.016;21.454;2023-08-12T00:24:43;98747.56;;;19.95;54.60
62789;BME280;66401;42.016;21.454;2023-08-12T00:27:10;98760.22;;;19.93;54.58
62789;BME280;66401;42.016;21.454;2023-08-12T00:29:35;98751.81;;;19.96;54.65
62789;BME280;66401;42.016;21.454;2023-08-12T00:32:01;98755.41;;;19.90;55.08
62789;BME280;66401;42.016;21.454;2023-08-12T00:34:27;98756.22;;;19.90;55.06
62789;BME280;66401;42.016;21.454;2023-08-12T00:36:53;98763.59;;;19.88;55.40
62789;BME280;66401;42.016;21.454;2023-08-12T00:39:18;98752.69;;;19.85;55.29
62789;BME280;66401;42.016;21.454;2023-08-12T00:41:44;98754.78;;;19.83;55.86
62789;BME280;66401;42.016;21.454;2023-08-12T00:44:10;98759.16;;;19.77;55.37
62789;BME280;66401;42.016;21.454;2023-08-12T00:46:37;98749.38;;;19.78;55.96
62789;BME280;66401;42.016;21.454;2023-08-12T00:49:04;98749.88;;;19.75;55.56
62789;BME280;66401;42.016;21.454;2023-08-12T00:51:29;98744.03;;;19.72;55.63
62789;BME280;66401;42.016;21.454;2023-08-12T00:53:58;98746.66;;;19.72;55.67
62789;BME280;66401;42.016;21.454;2023-08-12T00:56:24;98744.41;;;19.64;56.60
62789;BME280;66401;42.016;21.454;2023-08-12T00:58:51;98745.34;;;19.58;56.47
62789;BME280;66401;42.016;21.454;2023-08-12T01:01:17;98745.16;;;19.60;56.30
62789;BME280;66401;42.016;21.454;2023-08-12T01:03:43;98737.34;;;19.53;55.84
62789;BME280;66401;42.016;21.454;2023-08-12T01:06:08;98743.66;;;19.52;57.20
62789;BME280;66401;42.016;21.454;2023-08-12T01:08:35;98745.81;;;19.55;56.58
62789;BME280;66401;42.016;21.454;2023-08-12T01:11:14;98748.38;;;19.50;56.89
62789;BME280;66401;42.016;21.454;2023-08-12T01:16:10;98746.69;;;19.44;56.90
62789;BME280;66401;42.016;21.454;2023-08-12T01:18:38;98748.75;;;19.42;56.89
62789;BME280;66401;42.016;21.454;2023-08-12T01:21:07;98747.97;;;19.41;56.93
62789;BME280;66401;42.016;21.454;2023-08-12T01:23:37;98750.50;;;19.36;57.39
62789;BME280;66401;42.016;21.454;2023-08-12T01:26:04;98750.19;;;19.33;57.93
62789;BME280;66401;42.016;21.454;2023-08-12T01:28:30;98738.94;;;19.26;58.07
62789;BME280;66401;42.016;21.454;2023-08-12T01:31:31;98749.19;;;19.22;58.63
62789;BME280;66401;42.016;21.454;2023-08-12T01:35:09;98751.59;;;19.24;58.90
62789;BME280;66401;42.016;21.454;2023-08-12T01:37:04;98743.00;;;19.16;59.72
62789;BME280;66401;42.016;21.454;2023-08-12T01:39:33;98735.94;;;19.05;59.87
62789;BME280;66401;42.016;21.454;2023-08-12T01:42:01;98738.88;;;19.09;59.47
62789;BME280;66401;42.016;21.454;2023-08-12T01:44:26;98743.38;;;19.08;59.71
62789;BME280;66401;42.016;21.454;2023-08-12T01:46:52;98740.66;;;19.03;59.92
62789;BME280;66401;42.016;21.454;2023-08-12T01:49:17;98743.03;;;19.05;59.39
62789;BME280;66401;42.016;21.454;2023-08-12T01:51:43;98744.44;;;18.96;60.64
62789;BME280;66401;42.016;21.454;2023-08-12T01:54:08;98741.56;;;18.97;60.65
62789;BME280;66401;42.016;21.454;2023-08-12T01:56:34;98748.94;;;18.95;60.67
62789;BME280;66401;42.016;21.454;2023-08-12T01:59:00;98750.41;;;18.91;60.38
62789;BME280;66401;42.016;21.454;2023-08-12T02:01:25;98742.88;;;18.83;60.02
62789;BME280;66401;42.016;21.454;2023-08-12T02:03:50;98745.28;;;18.84;59.86
62789;BME280;66401;42.016;21.454;2023-08-12T02:06:16;98751.59;;;18.83;60.01
62789;BME280;66401;42.016;21.454;2023-08-12T02:08:41;98745.97;;;18.80;61.14
62789;BME280;66401;42.016;21.454;2023-08-12T02:11:07;98750.13;;;18.76;60.39
62789;BME280;66401;42.016;21.454;2023-08-12T02:13:32;98747.16;;;18.72;60.57
62789;BME280;66401;42.016;21.454;2023-08-12T02:15:58;98755.75;;;18.68;60.37
62789;BME280;66401;42.016;21.454;2023-08-12T02:18:23;98734.63;;;18.56;60.40
62789;BME280;66401;42.016;21.454;2023-08-12T02:20:49;98729.94;;;18.46;60.08
62789;BME280;66401;42.016;21.454;2023-08-12T02:23:14;98742.78;;;18.54;61.20
62789;BME280;66401;42.016;21.454;2023-08-12T02:25:40;98746.91;;;18.50;60.57
62789;BME280;66401;42.016;21.454;2023-08-12T02:28:05;98742.66;;;18.49;60.00
62789;BME280;66401;42.016;21.454;2023-08-12T02:30:31;98748.50;;;18.51;60.41
62789;BME280;66401;42.016;21.454;2023-08-12T02:32:56;98750.47;;;18.44;60.58
62789;BME280;66401;42.016;21.454;2023-08-12T02:35:22;98753.78;;;18.51;60.53
62789;BME280;66401;42.016;21.454;2023-08-12T02:37:48;98756.88;;;18.48;60.31
62789;BME280;66401;42.016;21.454;2023-08-12T02:40:14;98752.97;;;18.51;60.46
62789;BME280;66401;42.016;21.454;2023-08-12T02:42:40;98750.56;;;18.49;60.50
62789;BME280;66401;42.016;21.454;2023-08-12T02:45:05;98752.41;;;18.49;60.34
62789;BME280;66401;42.016;21.454;2023-08-12T02:47:31;98753.69;;;18.46;60.03
62789;BME280;66401;42.016;21.454;2023-08-12T02:49:56;98737.16;;;18.39;60.46
62789;BME280;66401;42.016;21.454;2023-08-12T02:52:22;98751.72;;;18.42;60.18
62789;BME280;66401;42.016;21.454;2023-08-12T02:54:47;98756.31;;;18.46;59.96
62789;BME280;66401;42.016;21.454;2023-08-12T02:57:13;98756.56;;;18.45;59.84
62789;BME280;66401;42.016;21.454;2023-08-12T02:59:39;98757.34;;;18.45;60.10
62789;BME280;66401;42.016;21.454;2023-08-12T03:02:04;98760.22;;;18.44;60.40
62789;BME280;66401;42.016;21.454;2023-08-12T03:04:30;98756.53;;;18.33;61.10
62789;BME280;66401;42.016;21.454;2023-08-12T03:06:55;98764.25;;;18.35;60.81
62789;BME280;66401;42.016;21.454;2023-08-12T03:09:21;98762.84;;;18.32;60.67
62789;BME280;66401;42.016;21.454;2023-08-12T03:11:46;98762.28;;;18.30;61.49
62789;BME280;66401;42.016;21.454;2023-08-12T03:14:12;98767.88;;;18.22;61.72
62789;BME280;66401;42.016;21.454;2023-08-12T03:16:38;98762.84;;;18.09;61.76
62789;BME280;66401;42.016;21.454;2023-08-12T03:19:03;98764.31;;;18.05;62.86
62789;BME280;66401;42.016;21.454;2023-08-12T03:21:29;98764.66;;;17.96;63.04
62789;BME280;66401;42.016;21.454;2023-08-12T03:23:54;98769.81;;;17.91;64.15
62789;BME280;66401;42.016;21.454;2023-08-12T03:26:20;98770.69;;;17.85;63.95
62789;BME280;66401;42.016;21.454;2023-08-12T03:28:45;98767.06;;;17.86;63.77
62789;BME280;66401;42.016;21.454;2023-08-12T03:31:11;98774.50;;;17.89;63.30
62789;BME280;66401;42.016;21.454;2023-08-12T03:33:37;98759.72;;;17.88;62.59
62789;BME280;66401;42.016;21.454;2023-08-12T03:36:02;98764.75;;;17.90;62.40
62789;BME280;66401;42.016;21.454;2023-08-12T03:38:28;98773.59;;;17.95;63.20
62789;BME280;66401;42.016;21.454;2023-08-12T03:40:53;98770.06;;;18.01;62.88
62789;BME280;66401;42.016;21.454;2023-08-12T03:43:19;98782.19;;;18.02;62.79
62789;BME280;66401;42.016;21.454;2023-08-12T03:45:45;98781.16;;;18.03;61.88
62789;BME280;66401;42.016;21.454;2023-08-12T03:48:11;98771.09;;;18.00;61.80
62789;BME280;66401;42.016;21.454;2023-08-12T03:50:37;98780.34;;;18.03;62.01
62789;BME280;66401;42.016;21.454;2023-08-12T03:53:03;98769.72;;;17.98;61.22
62789;BME280;66401;42.016;21.454;2023-08-12T03:55:33;98786.44;;;18.03;61.26
62789;BME280;66401;42.016;21.454;2023-08-12T03:57:59;98780.97;;;18.05;61.32
62789;BME280;66401;42.016;21.454;2023-08-12T04:00:25;98777.97;;;18.01;61.48
62789;BME280;66401;42.016;21.454;2023-08-12T04:02:50;98785.41;;;18.05;62.19
62789;BME280;66401;42.016;21.454;2023-08-12T04:05:16;98778.53;;;18.03;62.65
62789;BME280;66401;42.016;21.454;2023-08-12T04:07:42;98782.91;;;18.10;62.88
62789;BME280;66401;42.016;21.454;2023-08-12T04:10:08;98786.09;;;18.12;62.42
62789;BME280;66401;42.016;21.454;2023-08-12T04:12:33;98782.75;;;18.05;62.98
62789;BME280;66401;42.016;21.454;2023-08-12T04:14:59;98787.47;;;18.02;63.65
62789;BME280;66401;42.016;21.454;2023-08-12T04:17:27;98791.84;;;18.09;63.43
62789;BME280;66401;42.016;21.454;2023-08-12T04:19:52;98788.63;;;18.07;62.73
62789;BME280;66401;42.016;21.454;2023-08-12T04:22:18;98792.31;;;18.06;63.86
62789;BME280;66401;42.016;21.454;2023-08-12T04:24:44;98789.66;;;18.06;63.92
62789;BME280;66401;42.016;21.454;2023-08-12T04:27:09;98788.38;;;17.96;63.44
62789;BME280;66401;42.016;21.454;2023-08-12T04:29:35;98801.22;;;18.05;63.19
62789;BME280;66401;42.016;21.454;2023-08-12T04:32:01;98796.22;;;18.15;62.70
62789;BME280;66401;42.016;21.454;2023-08-12T04:34:26;98798.72;;;18.10;63.98
62789;BME280;66401;42.016;21.454;2023-08-12T04:36:52;98800.31;;;18.11;63.71
62789;BME280;66401;42.016;21.454;2023-08-12T04:39:18;98801.50;;;18.15;63.69
62789;BME280;66401;42.016;21.454;2023-08-12T04:41:44;98801.72;;;18.25;63.96
62789;BME280;66401;42.016;21.454;2023-08-12T04:44:09;98798.06;;;18.26;63.17
62789;BME280;66401;42.016;21.454;2023-08-12T04:46:35;98793.81;;;18.37;62.10
62789;BME280;66401;42.016;21.454;2023-08-12T04:49:00;98805.28;;;18.54;62.08
62789;BME280;66401;42.016;21.454;2023-08-12T04:51:26;98804.38;;;18.72;61.46
62789;BME280;66401;42.016;21.454;2023-08-12T04:53:52;98799.75;;;18.91;60.39
62789;BME280;66401;42.016;21.454;2023-08-12T04:56:17;98815.13;;;19.05;59.82
62789;BME280;66401;42.016;21.454;2023-08-12T04:58:43;98817.41;;;19.13;59.73
62789;BME280;66401;42.016;21.454;2023-08-12T05:01:09;98811.75;;;19.22;59.34
62789;BME280;66401;42.016;21.454;2023-08-12T05:03:34;98812.41;;;19.29;59.28
62789;BME280;66401;42.016;21.454;2023-08-12T05:05:59;98812.16;;;19.42;59.54
62789;BME280;66401;42.016;21.454;2023-08-12T05:08:25;98817.16;;;19.55;59.55
62789;BME280;66401;42.016;21.454;2023-08-12T05:10:51;98805.69;;;19.61;58.50
62789;BME280;66401;42.016;21.454;2023-08-12T05:13:17;98816.38;;;19.83;58.40
62789;BME280;66401;42.016;21.454;2023-08-12T05:15:48;98805.56;;;19.85;58.02
62789;BME280;66401;42.016;21.454;2023-08-12T05:18:14;98814.38;;;20.07;56.44
62789;BME280;66401;42.016;21.454;2023-08-12T05:20:40;98811.03;;;20.28;56.67
62789;BME280;66401;42.016;21.454;2023-08-12T05:23:07;98816.16;;;20.52;56.14
62789;BME280;66401;42.016;21.454;2023-08-12T05:25:32;98817.31;;;20.56;55.63
62789;BME280;66401;42.016;21.454;2023-08-12T05:27:58;98812.75;;;20.73;55.98
62789;BME280;66401;42.016;21.454;2023-08-12T05:30:24;98815.78;;;20.82;55.04
62789;BME280;66401;42.016;21.454;2023-08-12T05:32:50;98818.16;;;21.00;54.52
62789;BME280;66401;42.016;21.454;2023-08-12T05:35:15;98822.22;;;21.08;53.71
62789;BME280;66401;42.016;21.454;2023-08-12T05:37:41;98820.66;;;21.12;55.15
62789;BME280;66401;42.016;21.454;2023-08-12T05:40:08;98817.97;;;21.07;54.71
62789;BME280;66401;42.016;21.454;2023-08-12T05:42:37;98819.91;;;21.33;53.47
62789;BME280;66401;42.016;21.454;2023-08-12T05:45:03;98819.00;;;21.50;52.94
62789;BME280;66401;42.016;21.454;2023-08-12T05:47:29;98819.22;;;21.70;51.99
62789;BME280;66401;42.016;21.454;2023-08-12T05:49:55;98831.59;;;21.86;52.33
62789;BME280;66401;42.016;21.454;2023-08-12T05:52:20;98825.84;;;21.99;51.42
62789;BME280;66401;42.016;21.454;2023-08-12T05:54:46;98835.97;;;22.30;50.29
62789;BME280;66401;42.016;21.454;2023-08-12T05:57:11;98824.31;;;22.73;49.82
62789;BME280;66401;42.016;21.454;2023-08-12T05:59:37;98830.09;;;23.07;48.51
62789;BME280;66401;42.016;21.454;2023-08-12T06:02:02;98825.66;;;23.33;48.68
62789;BME280;66401;42.016;21.454;2023-08-12T06:04:29;98818.91;;;23.98;45.93
62789;BME280;66401;42.016;21.454;2023-08-12T06:06:54;98809.34;;;24.38;45.81
62789;BME280;66401;42.016;21.454;2023-08-12T06:09:21;98810.16;;;24.23;45.01
62789;BME280;66401;42.016;21.454;2023-08-12T06:11:46;98813.50;;;23.52;46.05
62789;BME280;66401;42.016;21.454;2023-08-12T06:14:12;98809.59;;;22.97;48.20
62789;BME280;66401;42.016;21.454;2023-08-12T06:16:37;98800.69;;;22.76;48.58
62789;BME280;66401;42.016;21.454;2023-08-12T06:19:03;98813.69;;;22.73;48.19
62789;BME280;66401;42.016;21.454;2023-08-12T06:21:28;98809.59;;;22.50;49.37
62789;BME280;66401;42.016;21.454;2023-08-12T06:23:55;98805.31;;;22.91;48.97
62789;BME280;66401;42.016;21.454;2023-08-12T06:26:20;98798.66;;;23.61;46.53
62789;BME280;66401;42.016;21.454;2023-08-12T06:28:46;98798.16;;;24.10;46.00
62789;BME280;66401;42.016;21.454;2023-08-12T06:31:11;98795.50;;;24.46;45.36
62789;BME280;66401;42.016;21.454;2023-08-12T06:33:37;98792.81;;;24.61;44.26
62789;BME280;66401;42.016;21.454;2023-08-12T06:36:02;98795.47;;;24.71;44.99
62789;BME280;66401;42.016;21.454;2023-08-12T06:38:28;98795.44;;;24.81;45.22
62789;BME280;66401;42.016;21.454;2023-08-12T06:40:54;98789.13;;;24.37;45.54
62789;BME280;66401;42.016;21.454;2023-08-12T06:43:20;98790.72;;;24.12;46.20
62789;BME280;66401;42.016;21.454;2023-08-12T06:45:45;98777.97;;;23.94;46.34
62789;BME280;66401;42.016;21.454;2023-08-12T06:48:11;98784.06;;;23.79;47.19
62789;BME280;66401;42.016;21.454;2023-08-12T06:50:36;98775.25;;;23.74;48.14
62789;BME280;66401;42.016;21.454;2023-08-12T06:53:02;98774.22;;;23.69;47.94
62789;BME280;66401;42.016;21.454;2023-08-12T06:55:27;98773.63;;;23.57;45.87
62789;BME280;66401;42.016;21.454;2023-08-12T06:57:53;98774.47;;;23.63;46.73
62789;BME280;66401;42.016;21.454;2023-08-12T07:00:18;98774.41;;;23.42;47.05
62789;BME280;66401;42.016;21.454;2023-08-12T07:02:44;98767.75;;;23.40;47.43
62789;BME280;66401;42.016;21.454;2023-08-12T07:05:09;98760.59;;;23.51;47.64
62789;BME280;66401;42.016;21.454;2023-08-12T07:07:35;98747.81;;;23.53;48.31
62789;BME280;66401;42.016;21.454;2023-08-12T07:10:00;98769.13;;;23.63;47.36
62789;BME280;66401;42.016;21.454;2023-08-12T07:12:26;98771.53;;;23.59;46.81
62789;BME280;66401;42.016;21.454;2023-08-12T07:14:52;98767.31;;;23.79;48.37
62789;BME280;66401;42.016;21.454;2023-08-12T07:17:17;98737.16;;;23.32;45.74
62789;BME280;66401;42.016;21.454;2023-08-12T07:19:42;98757.69;;;23.47;46.79
62789;BME280;66401;42.016;21.454;2023-08-12T07:22:08;98774.69;;;23.46;45.86
62789;BME280;66401;42.016;21.454;2023-08-12T07:24:33;98769.91;;;23.53;46.30
62789;BME280;66401;42.016;21.454;2023-08-12T07:26:59;98771.81;;;23.63;46.02
62789;BME280;66401;42.016;21.454;2023-08-12T07:29:24;98771.28;;;23.91;46.06
62789;BME280;66401;42.016;21.454;2023-08-12T07:31:52;98766.50;;;24.09;44.70
62789;BME280;66401;42.016;21.454;2023-08-12T07:34:17;98767.81;;;24.32;44.43
62789;BME280;66401;42.016;21.454;2023-08-12T07:36:43;98762.97;;;24.59;44.63
62789;BME280;66401;42.016;21.454;2023-08-12T07:39:09;98753.88;;;24.70;44.39
62789;BME280;66401;42.016;21.454;2023-08-12T07:41:34;98764.50;;;24.91;44.11
62789;BME280;66401;42.016;21.454;2023-08-12T07:44:00;98751.69;;;24.88;43.33
62789;BME280;66401;42.016;21.454;2023-08-12T07:46:27;98763.41;;;24.92;42.54
62789;BME280;66401;42.016;21.454;2023-08-12T07:48:59;98761.31;;;24.83;41.81
62789;BME280;66401;42.016;21.454;2023-08-12T07:51:25;98765.13;;;24.62;42.79
62789;BME280;66401;42.016;21.454;2023-08-12T07:53:50;98764.22;;;24.92;41.65
62789;BME280;66401;42.016;21.454;2023-08-12T07:56:16;98762.22;;;25.23;41.21
62789;BME280;66401;42.016;21.454;2023-08-12T07:58:41;98758.25;;;25.16;41.26
62789;BME280;66401;42.016;21.454;2023-08-12T08:01:07;98741.84;;;25.37;41.91
62789;BME280;66401;42.016;21.454;2023-08-12T08:03:34;98756.13;;;25.57;41.65
62789;BME280;66401;42.016;21.454;2023-08-12T08:06:00;98746.88;;;25.49;40.75
62789;BME280;66401;42.016;21.454;2023-08-12T08:08:25;98750.28;;;25.55;40.68
62789;BME280;66401;42.016;21.454;2023-08-12T08:10:51;98745.53;;;25.47;39.95
62789;BME280;66401;42.016;21.454;2023-08-12T08:13:16;98744.53;;;25.37;38.83
62789;BME280;66401;42.016;21.454;2023-08-12T08:15:42;98738.94;;;25.39;40.65
62789;BME280;66401;42.016;21.454;2023-08-12T08:18:07;98743.94;;;25.51;40.88
62789;BME280;66401;42.016;21.454;2023-08-12T08:20:33;98742.78;;;25.57;41.27
62789;BME280;66401;42.016;21.454;2023-08-12T08:22:58;98747.13;;;25.48;39.99
62789;BME280;66401;42.016;21.454;2023-08-12T08:25:24;98738.94;;;25.39;40.39
62789;BME280;66401;42.016;21.454;2023-08-12T08:27:49;98746.47;;;25.66;40.30
62789;BME280;66401;42.016;21.454;2023-08-12T08:30:15;98736.22;;;25.49;39.70
62789;BME280;66401;42.016;21.454;2023-08-12T08:32:40;98741.38;;;25.69;40.19
62789;BME280;66401;42.016;21.454;2023-08-12T08:35:06;98740.06;;;25.72;38.71
62789;BME280;66401;42.016;21.454;2023-08-12T08:37:32;98738.47;;;25.66;40.20
62789;BME280;66401;42.016;21.454;2023-08-12T08:39:57;98725.81;;;25.87;39.73
62789;BME280;66401;42.016;21.454;2023-08-12T08:42:24;98726.06;;;26.14;39.15
62789;BME280;66401;42.016;21.454;2023-08-12T08:44:52;98734.16;;;26.33;39.64
62789;BME280;66401;42.016;21.454;2023-08-12T08:47:25;98707.78;;;26.56;39.05
62789;BME280;66401;42.016;21.454;2023-08-12T08:49:54;98710.72;;;26.97;42.79
62789;BME280;66401;42.016;21.454;2023-08-12T08:52:25;98710.63;;;27.07;39.55
62789;BME280;66401;42.016;21.454;2023-08-12T08:54:51;98716.72;;;27.13;37.02
62789;BME280;66401;42.016;21.454;2023-08-12T08:57:18;98699.94;;;27.07;38.24
62789;BME280;66401;42.016;21.454;2023-08-12T08:59:44;98705.47;;;27.29;37.60
62789;BME280;66401;42.016;21.454;2023-08-12T09:02:17;98711.75;;;27.57;39.96
62789;BME280;66401;42.016;21.454;2023-08-12T09:04:44;98702.44;;;27.36;36.25
62789;BME280;66401;42.016;21.454;2023-08-12T09:07:11;98702.41;;;27.03;36.16
62789;BME280;66401;42.016;21.454;2023-08-12T09:09:40;98697.09;;;27.36;43.00
62789;BME280;66401;42.016;21.454;2023-08-12T09:12:08;98691.25;;;27.34;38.45
62789;BME280;66401;42.016;21.454;2023-08-12T09:14:35;98697.94;;;27.50;38.30
62789;BME280;66401;42.016;21.454;2023-08-12T09:17:01;98694.69;;;27.53;38.27
62789;BME280;66401;42.016;21.454;2023-08-12T09:19:27;98689.91;;;27.50;38.94
62789;BME280;66401;42.016;21.454;2023-08-12T09:21:53;98686.81;;;27.62;37.87
62789;BME280;66401;42.016;21.454;2023-08-12T09:24:28;98677.56;;;27.54;37.03
62789;BME280;66401;42.016;21.454;2023-08-12T09:26:55;98690.84;;;27.59;37.17
62789;BME280;66401;42.016;21.454;2023-08-12T09:29:29;98689.41;;;27.48;39.78
62789;BME280;66401;42.016;21.454;2023-08-12T09:32:05;98677.59;;;27.68;37.90
62789;BME280;66401;42.016;21.454;2023-08-12T09:34:31;98681.81;;;27.88;38.23
62789;BME280;66401;42.016;21.454;2023-08-12T09:36:59;98685.66;;;27.49;36.25
62789;BME280;66401;42.016;21.454;2023-08-12T09:39:25;98680.34;;;27.63;37.38
62789;BME280;66401;42.016;21.454;2023-08-12T09:41:51;98673.06;;;27.69;36.70
62789;BME280;66401;42.016;21.454;2023-08-12T09:44:16;98670.91;;;27.71;36.83
62789;BME280;66401;42.016;21.454;2023-08-12T09:46:42;98665.56;;;27.84;36.63
62789;BME280;66401;42.016;21.454;2023-08-12T09:49:08;98665.19;;;27.91;40.71
62789;BME280;66401;42.016;21.454;2023-08-12T09:51:35;98663.59;;;28.17;40.63
62789;BME280;66401;42.016;21.454;2023-08-12T09:54:02;98665.09;;;28.23;39.47
62789;BME280;66401;42.016;21.454;2023-08-12T09:56:29;98661.06;;;28.40;39.44
62789;BME280;66401;42.016;21.454;2023-08-12T09:58:59;98667.31;;;28.49;37.73
62789;BME280;66401;42.016;21.454;2023-08-12T10:01:26;98663.78;;;28.07;34.09
62789;BME280;66401;42.016;21.454;2023-08-12T10:03:53;98661.50;;;27.54;35.28
62789;BME280;66401;42.016;21.454;2023-08-12T10:06:19;98635.69;;;27.77;38.27
62789;BME280;66401;42.016;21.454;2023-08-12T10:08:46;98639.22;;;28.19;39.70
62789;BME280;66401;42.016;21.454;2023-08-12T10:11:12;98642.19;;;28.17;39.74
62789;BME280;66401;42.016;21.454;2023-08-12T10:13:42;98643.41;;;28.39;38.50
62789;BME280;66401;42.016;21.454;2023-08-12T10:16:11;98644.78;;;28.50;37.91
62789;BME280;66401;42.016;21.454;2023-08-12T10:18:39;98638.94;;;28.48;36.55
62789;BME280;66401;42.016;21.454;2023-08-12T10:21:05;98630.56;;;28.63;37.41
62789;BME280;66401;42.016;21.454;2023-08-12T10:23:34;98634.59;;;28.74;36.94
62789;BME280;66401;42.016;21.454;2023-08-12T10:26:00;98634.03;;;28.77;35.87
62789;BME280;66401;42.016;21.454;2023-08-12T10:28:27;98626.25;;;28.90;37.10
62789;BME280;66401;42.016;21.454;2023-08-12T10:30:55;98624.16;;;28.87;36.87
62789;BME280;66401;42.016;21.454;2023-08-12T10:33:21;98622.91;;;28.70;35.49
62789;BME280;66401;42.016;21.454;2023-08-12T10:35:48;98612.81;;;28.54;35.43
62789;BME280;66401;42.016;21.454;2023-08-12T10:38:18;98618.47;;;28.52;35.31
62789;BME280;66401;42.016;21.454;2023-08-12T10:40:44;98614.41;;;28.55;35.59
62789;BME280;66401;42.016;21.454;2023-08-12T10:43:12;98610.59;;;28.69;35.60
62789;BME280;66401;42.016;21.454;2023-08-12T10:45:51;98596.25;;;28.88;39.09
62789;BME280;66401;42.016;21.454;2023-08-12T10:48:21;98592.78;;;28.87;35.57
62789;BME280;66401;42.016;21.454;2023-08-12T10:50:56;98585.38;;;28.70;35.07
62789;BME280;66401;42.016;21.454;2023-08-12T10:53:27;98589.31;;;28.87;36.39
62789;BME280;66401;42.016;21.454;2023-08-12T10:56:02;98587.81;;;29.17;37.16
62789;BME280;66401;42.016;21.454;2023-08-12T10:58:33;98594.56;;;29.14;35.43
62789;BME280;66401;42.016;21.454;2023-08-12T11:00:59;98584.09;;;29.04;34.97
62789;BME280;66401;42.016;21.454;2023-08-12T11:03:25;98568.38;;;29.11;35.26
62789;BME280;66401;42.016;21.454;2023-08-12T11:05:52;98572.06;;;29.24;34.90
62789;BME280;66401;42.016;21.454;2023-08-12T11:08:25;98583.41;;;29.21;36.18
62789;BME280;66401;42.016;21.454;2023-08-12T11:10:54;98573.84;;;29.28;34.65
62789;BME280;66401;42.016;21.454;2023-08-12T11:13:20;98567.06;;;28.86;36.01
62789;BME280;66401;42.016;21.454;2023-08-12T11:15:47;98561.19;;;28.84;34.27
62789;BME280;66401;42.016;21.454;2023-08-12T11:18:17;98570.44;;;28.92;34.75
62789;BME280;66401;42.016;21.454;2023-08-12T11:20:43;98559.31;;;28.98;35.82
62789;BME280;66401;42.016;21.454;2023-08-12T11:23:09;98551.91;;;29.04;36.33
62789;BME280;66401;42.016;21.454;2023-08-12T11:25:38;98561.06;;;29.03;34.39
62789;BME280;66401;42.016;21.454;2023-08-12T11:28:05;98557.97;;;28.73;35.12
62789;BME280;66401;42.016;21.454;2023-08-12T11:30:31;98551.13;;;29.03;35.34
62789;BME280;66401;42.016;21.454;2023-08-12T11:32:58;98558.63;;;29.15;35.23
62789;BME280;66401;42.016;21.454;2023-08-12T11:35:24;98549.22;;;29.26;36.09
62789;BME280;66401;42.016;21.454;2023-08-12T11:37:52;98548.97;;;29.36;38.25
62789;BME280;66401;42.016;21.454;2023-08-12T11:40:25;98555.03;;;29.51;37.70
62789;BME280;66401;42.016;21.454;2023-08-12T11:42:51;98548.19;;;29.67;36.31
62789;BME280;66401;42.016;21.454;2023-08-12T11:45:19;98544.75;;;29.75;34.30
62789;BME280;66401;42.016;21.454;2023-08-12T11:47:45;98542.38;;;29.74;34.99
62789;BME280;66401;42.016;21.454;2023-08-12T11:50:18;98541.47;;;29.87;33.73
62789;BME280;66401;42.016;21.454;2023-08-12T11:52:43;98538.81;;;29.96;33.71
62789;BME280;66401;42.016;21.454;2023-08-12T11:55:09;98534.19;;;29.87;33.80
62789;BME280;66401;42.016;21.454;2023-08-12T11:57:35;98530.09;;;29.50;33.56
62789;BME280;66401;42.016;21.454;2023-08-12T12:00:02;98521.06;;;29.46;34.18
62789;BME280;66401;42.016;21.454;2023-08-12T12:02:30;98520.50;;;29.58;33.83
62789;BME280;66401;42.016;21.454;2023-08-12T12:04:55;98517.94;;;29.53;32.89
62789;BME280;66401;42.016;21.454;2023-08-12T12:07:23;98515.28;;;29.53;34.26
62789;BME280;66401;42.016;21.454;2023-08-12T12:09:53;98519.88;;;29.61;33.12
62789;BME280;66401;42.016;21.454;2023-08-12T12:12:25;98514.84;;;29.59;34.61
62789;BME280;66401;42.016;21.454;2023-08-12T12:14:52;98509.31;;;29.56;34.59
62789;BME280;66401;42.016;21.454;2023-08-12T12:17:21;98507.13;;;29.67;34.47
62789;BME280;66401;42.016;21.454;2023-08-12T12:19:52;98508.38;;;29.69;34.66
62789;BME280;66401;42.016;21.454;2023-08-12T12:22:18;98506.34;;;29.66;33.68
62789;BME280;66401;42.016;21.454;2023-08-12T12:24:44;98498.22;;;29.49;34.56
62789;BME280;66401;42.016;21.454;2023-08-12T12:27:13;98496.13;;;29.46;32.99
62789;BME280;66401;42.016;21.454;2023-08-12T12:29:40;98496.88;;;29.38;33.47
62789;BME280;66401;42.016;21.454;2023-08-12T12:32:05;98483.59;;;29.32;35.38
62789;BME280;66401;42.016;21.454;2023-08-12T12:34:31;98487.09;;;29.42;34.44
62789;BME280;66401;42.016;21.454;2023-08-12T12:36:56;98475.13;;;29.48;36.78
62789;BME280;66401;42.016;21.454;2023-08-12T12:39:22;98490.84;;;29.54;33.41
62789;BME280;66401;42.016;21.454;2023-08-12T12:41:48;98484.88;;;29.66;33.33
62789;BME280;66401;42.016;21.454;2023-08-12T12:44:14;98468.19;;;29.47;33.77
62789;BME280;66401;42.016;21.454;2023-08-12T12:46:39;98474.09;;;29.57;35.13
62789;BME280;66401;42.016;21.454;2023-08-12T12:49:05;98480.34;;;29.13;34.55